TimeCDT,TemperatureF,Dew PointF,Humidity,Sea Level PressureIn,VisibilityMPH,Wind Direction,Wind SpeedMPH,Gust SpeedMPH,PrecipitationIn,Events,Conditions,WindDirDegrees,DateUTC
12:15 AM,55.6,40.5,57,29.96,10.0,SSE,9.2,-,N/A,,Clear,150,2013-05-14 05:15:00
12:35 AM,55.6,40.5,57,29.95,10.0,SSE,9.2,-,N/A,,Clear,150,2013-05-14 05:35:00
12:55 AM,55.4,40.6,58,29.94,10.0,SSE,8.1,-,N/A,,Clear,150,2013-05-14 05:55:00
1:15 AM,55.4,41.0,58,29.93,10.0,SSE,9.2,-,N/A,,Clear,150,2013-05-14 06:15:00
1:35 AM,55.4,41.2,59,29.92,10.0,SSE,8.1,-,N/A,,Clear,160,2013-05-14 06:35:00
1:55 AM,55.4,41.2,59,29.91,10.0,SSE,8.1,-,N/A,,Clear,160,2013-05-14 06:55:00
2:15 AM,54.5,41.7,62,29.91,10.0,South,8.1,-,N/A,,Clear,180,2013-05-14 07:15:00
2:35 AM,54.3,41.9,63,29.90,10.0,SSE,8.1,-,N/A,,Clear,160,2013-05-14 07:35:00
2:55 AM,54.1,42.1,64,29.89,10.0,SSE,8.1,-,N/A,,Clear,160,2013-05-14 07:55:00
3:15 AM,54.1,42.4,65,29.88,10.0,SSE,9.2,-,N/A,,Clear,160,2013-05-14 08:15:00
3:35 AM,53.8,42.8,66,29.88,10.0,South,9.2,-,N/A,,Clear,170,2013-05-14 08:35:00
3:55 AM,54.0,43.0,66,29.87,10.0,South,10.4,-,N/A,,Clear,180,2013-05-14 08:55:00
4:15 AM,54.1,43.5,67,29.86,10.0,South,8.1,-,N/A,,Clear,180,2013-05-14 09:15:00
4:35 AM,54.5,44.1,68,29.86,10.0,South,8.1,-,N/A,,Clear,170,2013-05-14 09:35:00
4:55 AM,54.3,44.2,69,29.85,10.0,South,10.4,-,N/A,,Clear,170,2013-05-14 09:55:00
5:15 AM,54.5,44.6,69,29.85,10.0,South,10.4,-,N/A,,Clear,180,2013-05-14 10:15:00
5:35 AM,54.3,45.0,71,29.85,10.0,South,10.4,-,N/A,,Clear,180,2013-05-14 10:35:00
5:55 AM,54.7,45.5,71,29.84,10.0,South,10.4,-,N/A,,Clear,180,2013-05-14 10:55:00
6:15 AM,55.0,45.9,71,29.84,10.0,South,10.4,-,N/A,,Clear,180,2013-05-14 11:15:00
6:35 AM,56.1,46.4,70,29.83,10.0,South,11.5,-,N/A,,Clear,170,2013-05-14 11:35:00
6:55 AM,57.0,47.1,69,29.84,10.0,South,10.4,-,N/A,,Clear,190,2013-05-14 11:55:00
7:15 AM,58.3,48.0,69,29.84,10.0,South,8.1,-,N/A,,Clear,190,2013-05-14 12:15:00
7:35 AM,59.9,49.3,68,29.84,10.0,SSW,11.5,-,N/A,,Clear,200,2013-05-14 12:35:00
7:55 AM,61.5,50.9,68,29.84,10.0,SSW,10.4,-,N/A,,Clear,200,2013-05-14 12:55:00
8:15 AM,64.2,51.8,64,29.83,10.0,SSW,13.8,-,N/A,,Clear,210,2013-05-14 13:15:00
8:35 AM,66.2,52.5,61,29.83,10.0,SSW,15.0,18.4,N/A,,Clear,210,2013-05-14 13:35:00
8:55 AM,67.1,53.1,61,29.83,10.0,SW,13.8,18.4,N/A,,Clear,220,2013-05-14 13:55:00
9:15 AM,69.4,54.0,58,29.82,10.0,SW,10.4,-,N/A,,Clear,220,2013-05-14 14:15:00
9:35 AM,71.1,54.7,56,29.82,10.0,SW,9.2,-,N/A,,Clear,230,2013-05-14 14:35:00
9:55 AM,72.5,55.2,54,29.82,10.0,SW,11.5,-,N/A,,Clear,230,2013-05-14 14:55:00
10:15 AM,73.4,56.3,55,29.81,10.0,WSW,10.4,-,N/A,,Clear,240,2013-05-14 15:15:00
10:35 AM,75.0,56.7,53,29.81,10.0,WSW,8.1,-,N/A,,Clear,250,2013-05-14 15:35:00
10:55 AM,75.9,57.2,52,29.82,10.0,WSW,8.1,-,N/A,,Clear,250,2013-05-14 15:55:00
11:15 AM,77.0,57.2,50,29.82,10.0,SW,4.6,-,N/A,,Clear,230,2013-05-14 16:15:00
11:35 AM,78.8,58.3,49,29.81,10.0,SW,5.8,-,N/A,,Clear,230,2013-05-14 16:35:00
11:55 AM,79.7,58.1,47,29.81,10.0,SW,8.1,-,N/A,,Clear,230,2013-05-14 16:55:00
12:15 PM,81.1,58.3,46,29.81,10.0,SW,6.9,-,N/A,,Clear,220,2013-05-14 17:15:00
12:35 PM,82.2,57.2,42,29.80,10.0,WSW,6.9,-,N/A,,Clear,240,2013-05-14 17:35:00
12:55 PM,83.8,58.8,43,29.80,10.0,SSW,10.4,-,N/A,,Clear,210,2013-05-14 17:55:00
1:15 PM,84.6,57.6,40,29.78,10.0,South,8.1,-,N/A,,Clear,190,2013-05-14 18:15:00
1:35 PM,85.5,57.6,39,29.78,10.0,SSW,10.4,-,N/A,,Clear,210,2013-05-14 18:35:00
1:55 PM,86.9,56.7,36,29.78,10.0,SSW,8.1,-,N/A,,Clear,210,2013-05-14 18:55:00
2:15 PM,87.3,56.1,35,29.77,10.0,SSW,10.4,-,N/A,,Clear,200,2013-05-14 19:15:00
2:35 PM,87.8,57.2,35,29.76,10.0,SSW,13.8,17.3,N/A,,Clear,200,2013-05-14 19:35:00
2:55 PM,88.5,56.8,34,29.76,10.0,SSW,10.4,-,N/A,,Clear,200,2013-05-14 19:55:00
3:15 PM,89.1,58.5,35,29.75,10.0,SSW,12.7,16.1,N/A,,Clear,200,2013-05-14 20:15:00
3:35 PM,89.2,58.5,35,29.74,10.0,South,17.3,21.9,N/A,,Clear,190,2013-05-14 20:35:00
3:55 PM,88.9,57.2,34,29.73,10.0,SSW,17.3,21.9,N/A,,Clear,210,2013-05-14 20:55:00
4:15 PM,88.9,56.3,33,29.73,10.0,SSW,15.0,20.7,N/A,,Clear,210,2013-05-14 21:15:00
4:35 PM,88.9,58.3,35,29.72,10.0,SSW,15.0,-,N/A,,Clear,200,2013-05-14 21:35:00
4:55 PM,88.7,58.1,35,29.72,10.0,South,16.1,24.2,N/A,,Clear,180,2013-05-14 21:55:00
5:15 PM,87.8,58.8,37,29.71,10.0,SSW,16.1,24.2,N/A,,Clear,200,2013-05-14 22:15:00
5:35 PM,87.3,59.2,39,29.71,10.0,South,18.4,26.5,N/A,,Clear,190,2013-05-14 22:35:00
5:55 PM,86.9,59.0,39,29.70,10.0,South,17.3,-,N/A,,Clear,190,2013-05-14 22:55:00
6:15 PM,86.4,58.8,39,29.70,10.0,South,19.6,26.5,N/A,,Clear,190,2013-05-14 23:15:00
6:35 PM,85.3,55.2,36,29.69,10.0,SSW,19.6,29.9,N/A,,Clear,210,2013-05-14 23:35:00
6:55 PM,84.2,55.8,38,29.69,10.0,SSW,19.6,29.9,N/A,,Clear,200,2013-05-14 23:55:00
7:15 PM,83.3,56.3,40,29.69,10.0,SSW,16.1,25.3,N/A,,Clear,200,2013-05-15 00:15:00
7:35 PM,82.0,56.3,41,29.69,10.0,SSW,18.4,23.0,N/A,,Clear,200,2013-05-15 00:35:00
7:55 PM,80.6,57.0,44,29.69,10.0,SSW,15.0,-,N/A,,Clear,200,2013-05-15 00:55:00
8:15 PM,78.8,57.2,47,29.69,10.0,SSW,12.7,-,N/A,,Clear,210,2013-05-15 01:15:00
8:35 PM,77.5,57.2,49,29.69,10.0,SSW,12.7,-,N/A,,Clear,200,2013-05-15 01:35:00
8:55 PM,75.9,57.4,52,29.70,10.0,SSW,12.7,-,N/A,,Clear,200,2013-05-15 01:55:00
9:15 PM,75.2,57.2,53,29.71,10.0,SSW,12.7,-,N/A,,Clear,200,2013-05-15 02:15:00
9:35 PM,75.0,56.8,53,29.71,10.0,SSW,13.8,-,N/A,,Clear,200,2013-05-15 02:35:00
9:55 PM,74.7,56.5,53,29.72,10.0,SSW,12.7,-,N/A,,Clear,210,2013-05-15 02:55:00
10:15 PM,74.5,56.3,53,29.72,10.0,SSW,13.8,-,N/A,,Clear,210,2013-05-15 03:15:00
10:35 PM,73.8,56.3,54,29.72,10.0,SSW,15.0,-,N/A,,Clear,210,2013-05-15 03:35:00
10:55 PM,74.3,55.4,52,29.72,10.0,SSW,13.8,19.6,N/A,,Clear,210,2013-05-15 03:55:00
11:15 PM,74.3,54.5,50,29.73,10.0,SW,18.4,-,N/A,,Clear,220,2013-05-15 04:15:00
11:35 PM,74.1,53.6,49,29.73,10.0,SSW,15.0,-,N/A,,Clear,210,2013-05-15 04:35:00
11:55 PM,73.8,53.2,49,29.74,10.0,SSW,15.0,20.7,N/A,,Clear,210,2013-05-15 04:55:00